»·PEaware :: N1SC KSMO-KSAN

N1SC :: KSMO-KSAN

FLIGHT INFORMATION

Flight Status: Arrived
Operator: Privately registered:
United States
More flights under this callsign
Pilot: Chris C. (10181)
Aircraft: PIPER PA-44 SEMINOLE
(PA44)
More flights by this aircraft type
Origin: KSMO Santa Monica Mun
United States
Destination: KSAN San Diego Intl-Lindbergh
United States
More flights between these airports :: More routes between these airports
Route: SMO SMO125R V64 V363 DANAH V23 MZB
File this flight plan on PilotEdge
Remarks:
Altitude:
(Current/Filed)
5,000ft
Speed:
(Current/Filed)
170kts
Departed: 30-Jan-18 11:17 AM
Arrived: 30-Jan-18 12:09 PM
Distance/Time
Traveled:
100nm/0:52
Distance/Time
To Go:
Arrived

Flight Plot

Page will automatically refresh every two minutes.


Map Options




Map Legend


Flown Route
Filed Route
Departure Airport
Arrival Airport
Navaid (VOR, NDB)
Fix

Horizontal Profiles

Position Reports

Time Latitude Longitude Heading Altitude Ground
Speed
30-Jan-18 11:10 34.018534 -118.449686 133 178ft 0kts
30-Jan-18 11:11 34.018534 -118.449686 133 178ft 0kts
30-Jan-18 11:12 34.018534 -118.449686 133 178ft 0kts
30-Jan-18 11:13 34.018534 -118.449686 133 178ft 0kts
30-Jan-18 11:14 34.018534 -118.449686 133 178ft 0kts
30-Jan-18 11:15 34.018534 -118.449686 133 178ft 0kts
30-Jan-18 11:16 34.018534 -118.449686 133 178ft 0kts
30-Jan-18 11:17 34.018534 -118.449686 133 178ft 0kts
30-Jan-18 11:18 34.018534 -118.449686 133 178ft 0kts
30-Jan-18 11:19 34.018534 -118.449686 133 178ft 0kts
30-Jan-18 11:20 34.018442 -118.449512 106 178ft 3kts
30-Jan-18 11:21 34.020972 -118.446338 60 178ft 6kts
30-Jan-18 11:22 34.020993 -118.446101 115 178ft 0kts
30-Jan-18 11:23 34.017750 -118.449008 223 178ft 75kts
30-Jan-18 11:24 33.998066 -118.472229 223 1290ft 104kts
30-Jan-18 11:25 34.007561 -118.496568 324 2265ft 113kts
30-Jan-18 11:26 34.024245 -118.526257 352 3066ft 116kts
30-Jan-18 11:27 34.035133 -118.498918 124 4127ft 119kts
30-Jan-18 11:28 34.013553 -118.467125 130 4987ft 132kts
30-Jan-18 11:29 33.984209 -118.430596 138 4976ft 165kts
30-Jan-18 11:30 33.944687 -118.401920 132 5043ft 171kts
30-Jan-18 11:31 33.911102 -118.359655 133 5046ft 174kts
30-Jan-18 11:32 33.875802 -118.320391 134 4928ft 175kts
30-Jan-18 11:33 33.838845 -118.282280 139 4957ft 174kts
30-Jan-18 11:34 33.802879 -118.244524 135 4897ft 170kts
30-Jan-18 11:35 33.773923 -118.202282 90 4970ft 164kts
30-Jan-18 11:36 33.774773 -118.148305 84 5006ft 159kts
30-Jan-18 11:37 33.778551 -118.093861 83 4986ft 167kts
30-Jan-18 11:38 33.781931 -118.039041 88 5014ft 161kts
30-Jan-18 11:39 33.779413 -117.985182 93 5020ft 159kts
30-Jan-18 11:40 33.772797 -117.931910 99 5038ft 160kts
30-Jan-18 11:41 33.763132 -117.879456 97 5017ft 160kts
30-Jan-18 11:42 33.757739 -117.826226 96 5012ft 159kts
30-Jan-18 11:43 33.751642 -117.773789 118 5044ft 158kts
30-Jan-18 11:44 33.711575 -117.747872 155 4980ft 166kts
30-Jan-18 11:45 33.669013 -117.727689 161 5017ft 163kts
30-Jan-18 11:46 33.622614 -117.719632 174 4995ft 172kts
30-Jan-18 11:47 33.575565 -117.712298 171 4959ft 169kts
30-Jan-18 11:48 33.528977 -117.706125 174 4997ft 171kts
30-Jan-18 11:49 33.482235 -117.700663 165 5004ft 166kts
30-Jan-18 11:50 33.448493 -117.664853 135 5024ft 164kts
30-Jan-18 11:51 33.414700 -117.627215 133 4968ft 165kts
30-Jan-18 11:52 33.381353 -117.589337 135 5011ft 166kts
30-Jan-18 11:53 33.347145 -117.551612 135 4973ft 166kts
30-Jan-18 11:54 33.313815 -117.513571 133 5024ft 163kts
30-Jan-18 11:55 33.280978 -117.475362 133 5024ft 165kts
30-Jan-18 11:56 33.247406 -117.437489 132 5041ft 164kts
30-Jan-18 11:57 33.209552 -117.407757 160 5041ft 168kts
30-Jan-18 11:58 33.165058 -117.389659 157 5056ft 166kts
30-Jan-18 11:59 33.121452 -117.369410 159 5030ft 170kts
30-Jan-18 12:00 33.076579 -117.352227 160 5033ft 170kts
30-Jan-18 12:01 33.032001 -117.332303 158 4952ft 172kts
30-Jan-18 12:02 32.987216 -117.314080 161 5001ft 169kts
30-Jan-18 12:03 32.944027 -117.295271 155 5042ft 169kts
30-Jan-18 12:04 32.900126 -117.274186 156 5000ft 173kts
30-Jan-18 12:05 32.855596 -117.253301 157 4961ft 170kts
30-Jan-18 12:06 32.813480 -117.235100 156 4458ft 152kts
30-Jan-18 12:07 32.776451 -117.216160 155 3739ft 145kts
30-Jan-18 12:08 32.759736 -117.181215 93 3002ft 123kts
30-Jan-18 12:09 32.756690 -117.141013 93 2459ft 122kts
30-Jan-18 12:10 32.752585 -117.101634 101 1930ft 114kts
30-Jan-18 12:11 32.726213 -117.093655 197 1528ft 109kts
30-Jan-18 12:12 32.716482 -117.119880 285 1264ft 98kts
30-Jan-18 12:13 32.723686 -117.149978 288 676ft 88kts
30-Jan-18 12:14 32.729784 -117.174597 288 119ft 71kts
30-Jan-18 12:15 32.733850 -117.188025 9 18ft 10kts
30-Jan-18 12:16 32.734052 -117.187984 10 18ft 0kts
30-Jan-18 12:17 32.734052 -117.187984 10 18ft 0kts
30-Jan-18 12:18 32.734052 -117.187984 10 18ft 0kts
30-Jan-18 12:19 32.734052 -117.187984 10 18ft 0kts

Navigation Log

Ident Type
1. KSMO Airport
2. SMO Navaid
3. DANAH Fix
4. KELPS Fix
5. OCN Navaid
6. HURSI Fix
7. CARIF Fix
8. MZB Navaid
9. KSAN Airport